sensor_id;sensor_type;location;lat;lon;timestamp;P1;durP1;ratioP1;P2;durP2;ratioP2
75358;SDS011;64046;51.978;5.934;2023-08-06T00:01:24;7.18;;;5.20;;
75358;SDS011;64046;51.978;5.934;2023-08-06T00:03:55;8.80;;;5.50;;
75358;SDS011;64046;51.978;5.934;2023-08-06T00:06:27;7.57;;;5.47;;
75358;SDS011;64046;51.978;5.934;2023-08-06T00:08:59;8.57;;;5.35;;
75358;SDS011;64046;51.978;5.934;2023-08-06T00:11:29;7.20;;;5.57;;
75358;SDS011;64046;51.978;5.934;2023-08-06T00:14:04;10.50;;;5.35;;
75358;SDS011;64046;51.978;5.934;2023-08-06T00:16:34;7.03;;;5.55;;
75358;SDS011;64046;51.978;5.934;2023-08-06T00:19:05;7.75;;;4.70;;
75358;SDS011;64046;51.978;5.934;2023-08-06T00:21:35;6.75;;;4.88;;
75358;SDS011;64046;51.978;5.934;2023-08-06T00:24:05;7.15;;;5.32;;
75358;SDS011;64046;51.978;5.934;2023-08-06T00:26:35;6.85;;;5.15;;
75358;SDS011;64046;51.978;5.934;2023-08-06T00:29:08;8.20;;;4.95;;
75358;SDS011;64046;51.978;5.934;2023-08-06T00:31:39;9.75;;;5.93;;
75358;SDS011;64046;51.978;5.934;2023-08-06T00:34:16;10.60;;;5.35;;
75358;SDS011;64046;51.978;5.934;2023-08-06T00:36:48;6.28;;;4.97;;
75358;SDS011;64046;51.978;5.934;2023-08-06T00:39:20;9.07;;;5.18;;
75358;SDS011;64046;51.978;5.934;2023-08-06T00:41:52;11.40;;;5.15;;
75358;SDS011;64046;51.978;5.934;2023-08-06T00:44:31;6.60;;;4.63;;
75358;SDS011;64046;51.978;5.934;2023-08-06T00:47:04;7.47;;;4.82;;
75358;SDS011;64046;51.978;5.934;2023-08-06T00:49:35;8.85;;;5.55;;
75358;SDS011;64046;51.978;5.934;2023-08-06T00:52:06;9.40;;;6.35;;
75358;SDS011;64046;51.978;5.934;2023-08-06T00:54:42;7.85;;;5.95;;
75358;SDS011;64046;51.978;5.934;2023-08-06T00:57:17;8.80;;;6.03;;
75358;SDS011;64046;51.978;5.934;2023-08-06T00:59:59;7.35;;;5.70;;
75358;SDS011;64046;51.978;5.934;2023-08-06T01:02:31;11.70;;;5.72;;
75358;SDS011;64046;51.978;5.934;2023-08-06T01:05:00;8.30;;;5.10;;
75358;SDS011;64046;51.978;5.934;2023-08-06T01:07:41;6.53;;;4.30;;
75358;SDS011;64046;51.978;5.934;2023-08-06T01:10:31;8.40;;;4.38;;
75358;SDS011;64046;51.978;5.934;2023-08-06T01:13:11;7.65;;;5.30;;
75358;SDS011;64046;51.978;5.934;2023-08-06T01:16:07;6.85;;;6.00;;
75358;SDS011;64046;51.978;5.934;2023-08-06T01:18:40;8.00;;;5.40;;
75358;SDS011;64046;51.978;5.934;2023-08-06T01:21:15;6.38;;;5.20;;
75358;SDS011;64046;51.978;5.934;2023-08-06T01:23:50;6.22;;;4.80;;
75358;SDS011;64046;51.978;5.934;2023-08-06T01:26:33;4.80;;;3.70;;
75358;SDS011;64046;51.978;5.934;2023-08-06T01:29:12;5.10;;;3.92;;
75358;SDS011;64046;51.978;5.934;2023-08-06T01:31:50;7.88;;;4.90;;
75358;SDS011;64046;51.978;5.934;2023-08-06T01:34:23;4.47;;;3.63;;
75358;SDS011;64046;51.978;5.934;2023-08-06T01:37:01;7.35;;;4.63;;
75358;SDS011;64046;51.978;5.934;2023-08-06T01:39:35;10.00;;;6.53;;
75358;SDS011;64046;51.978;5.934;2023-08-06T01:42:14;7.70;;;5.65;;
75358;SDS011;64046;51.978;5.934;2023-08-06T01:44:47;10.00;;;5.10;;
75358;SDS011;64046;51.978;5.934;2023-08-06T01:47:18;11.27;;;6.75;;
75358;SDS011;64046;51.978;5.934;2023-08-06T01:50:08;8.02;;;5.97;;
75358;SDS011;64046;51.978;5.934;2023-08-06T01:52:43;10.80;;;5.07;;
75358;SDS011;64046;51.978;5.934;2023-08-06T01:55:15;9.35;;;6.78;;
75358;SDS011;64046;51.978;5.934;2023-08-06T01:57:44;9.43;;;6.90;;
75358;SDS011;64046;51.978;5.934;2023-08-06T02:00:24;12.27;;;8.77;;
75358;SDS011;64046;51.978;5.934;2023-08-06T02:02:56;11.98;;;7.60;;
75358;SDS011;64046;51.978;5.934;2023-08-06T02:05:28;13.93;;;8.90;;
75358;SDS011;64046;51.978;5.934;2023-08-06T02:08:01;10.15;;;8.07;;
75358;SDS011;64046;51.978;5.934;2023-08-06T02:10:31;9.65;;;6.13;;
75358;SDS011;64046;51.978;5.934;2023-08-06T02:13:07;10.75;;;7.70;;
75358;SDS011;64046;51.978;5.934;2023-08-06T02:15:42;9.68;;;7.40;;
75358;SDS011;64046;51.978;5.934;2023-08-06T02:18:24;9.32;;;7.45;;
75358;SDS011;64046;51.978;5.934;2023-08-06T02:20:57;12.45;;;8.95;;
75358;SDS011;64046;51.978;5.934;2023-08-06T02:23:33;15.02;;;8.70;;
75358;SDS011;64046;51.978;5.934;2023-08-06T02:26:06;12.63;;;8.85;;
75358;SDS011;64046;51.978;5.934;2023-08-06T02:28:38;10.88;;;7.18;;
75358;SDS011;64046;51.978;5.934;2023-08-06T02:31:08;10.73;;;7.22;;
75358;SDS011;64046;51.978;5.934;2023-08-06T02:33:42;9.30;;;7.55;;
75358;SDS011;64046;51.978;5.934;2023-08-06T02:36:14;9.98;;;7.00;;
75358;SDS011;64046;51.978;5.934;2023-08-06T02:38:49;11.50;;;7.07;;
75358;SDS011;64046;51.978;5.934;2023-08-06T02:41:19;11.85;;;7.90;;
75358;SDS011;64046;51.978;5.934;2023-08-06T02:43:52;8.27;;;7.35;;
75358;SDS011;64046;51.978;5.934;2023-08-06T02:46:27;10.07;;;6.70;;
75358;SDS011;64046;51.978;5.934;2023-08-06T02:48:59;8.40;;;5.90;;
75358;SDS011;64046;51.978;5.934;2023-08-06T02:51:38;7.60;;;5.63;;
75358;SDS011;64046;51.978;5.934;2023-08-06T02:54:15;7.97;;;5.63;;
75358;SDS011;64046;51.978;5.934;2023-08-06T02:56:48;6.82;;;5.63;;
75358;SDS011;64046;51.978;5.934;2023-08-06T02:59:33;8.40;;;5.75;;
75358;SDS011;64046;51.978;5.934;2023-08-06T03:02:27;7.18;;;5.97;;
75358;SDS011;64046;51.978;5.934;2023-08-06T03:05:05;8.15;;;5.78;;
75358;SDS011;64046;51.978;5.934;2023-08-06T03:07:42;7.25;;;5.05;;
75358;SDS011;64046;51.978;5.934;2023-08-06T03:10:23;12.48;;;6.32;;
75358;SDS011;64046;51.978;5.934;2023-08-06T03:13:03;6.72;;;5.15;;
75358;SDS011;64046;51.978;5.934;2023-08-06T03:15:35;9.18;;;5.50;;
75358;SDS011;64046;51.978;5.934;2023-08-06T03:18:23;7.13;;;5.20;;
75358;SDS011;64046;51.978;5.934;2023-08-06T03:20:56;5.97;;;4.93;;
75358;SDS011;64046;51.978;5.934;2023-08-06T03:23:32;7.38;;;5.13;;
75358;SDS011;64046;51.978;5.934;2023-08-06T03:26:07;7.10;;;4.78;;
75358;SDS011;64046;51.978;5.934;2023-08-06T03:28:40;6.53;;;4.82;;
75358;SDS011;64046;51.978;5.934;2023-08-06T03:31:13;9.77;;;6.00;;
75358;SDS011;64046;51.978;5.934;2023-08-06T03:33:45;6.40;;;4.70;;
75358;SDS011;64046;51.978;5.934;2023-08-06T03:36:22;7.13;;;5.32;;
75358;SDS011;64046;51.978;5.934;2023-08-06T03:38:55;7.85;;;5.75;;
75358;SDS011;64046;51.978;5.934;2023-08-06T03:41:32;7.90;;;5.88;;
75358;SDS011;64046;51.978;5.934;2023-08-06T03:44:04;7.65;;;5.50;;
75358;SDS011;64046;51.978;5.934;2023-08-06T03:46:37;7.63;;;5.75;;
75358;SDS011;64046;51.978;5.934;2023-08-06T03:49:11;7.75;;;5.60;;
75358;SDS011;64046;51.978;5.934;2023-08-06T03:51:49;8.02;;;5.53;;
75358;SDS011;64046;51.978;5.934;2023-08-06T03:54:19;7.50;;;5.55;;
75358;SDS011;64046;51.978;5.934;2023-08-06T03:56:56;8.48;;;5.32;;
75358;SDS011;64046;51.978;5.934;2023-08-06T03:59:27;9.13;;;6.13;;
75358;SDS011;64046;51.978;5.934;2023-08-06T04:01:57;9.15;;;6.13;;
75358;SDS011;64046;51.978;5.934;2023-08-06T04:04:27;7.38;;;5.38;;
75358;SDS011;64046;51.978;5.934;2023-08-06T04:06:56;8.35;;;6.05;;
75358;SDS011;64046;51.978;5.934;2023-08-06T04:09:27;7.07;;;5.80;;
75358;SDS011;64046;51.978;5.934;2023-08-06T04:12:15;8.13;;;5.22;;
75358;SDS011;64046;51.978;5.934;2023-08-06T04:14:46;10.43;;;5.82;;
75358;SDS011;64046;51.978;5.934;2023-08-06T04:17:17;9.60;;;6.90;;
75358;SDS011;64046;51.978;5.934;2023-08-06T04:19:51;13.73;;;7.65;;
75358;SDS011;64046;51.978;5.934;2023-08-06T04:22:25;7.78;;;6.15;;
75358;SDS011;64046;51.978;5.934;2023-08-06T04:25:02;7.82;;;6.10;;
75358;SDS011;64046;51.978;5.934;2023-08-06T04:27:36;14.32;;;7.43;;
75358;SDS011;64046;51.978;5.934;2023-08-06T04:30:11;9.85;;;5.30;;
75358;SDS011;64046;51.978;5.934;2023-08-06T04:32:41;8.48;;;5.90;;
75358;SDS011;64046;51.978;5.934;2023-08-06T04:35:14;9.70;;;5.68;;
75358;SDS011;64046;51.978;5.934;2023-08-06T04:37:48;10.52;;;7.15;;
75358;SDS011;64046;51.978;5.934;2023-08-06T04:40:23;9.27;;;6.55;;
75358;SDS011;64046;51.978;5.934;2023-08-06T04:42:57;9.60;;;7.13;;
75358;SDS011;64046;51.978;5.934;2023-08-06T04:45:28;9.10;;;6.80;;
75358;SDS011;64046;51.978;5.934;2023-08-06T04:48:00;8.82;;;7.07;;
75358;SDS011;64046;51.978;5.934;2023-08-06T04:50:29;10.73;;;7.10;;
75358;SDS011;64046;51.978;5.934;2023-08-06T04:53:03;8.70;;;6.32;;
75358;SDS011;64046;51.978;5.934;2023-08-06T04:55:37;10.60;;;6.47;;
75358;SDS011;64046;51.978;5.934;2023-08-06T04:58:13;6.82;;;5.78;;
75358;SDS011;64046;51.978;5.934;2023-08-06T05:00:44;8.63;;;6.10;;
75358;SDS011;64046;51.978;5.934;2023-08-06T05:03:23;8.60;;;6.70;;
75358;SDS011;64046;51.978;5.934;2023-08-06T05:05:53;9.00;;;6.30;;
75358;SDS011;64046;51.978;5.934;2023-08-06T05:08:28;12.60;;;6.93;;
75358;SDS011;64046;51.978;5.934;2023-08-06T05:11:02;7.20;;;5.90;;
75358;SDS011;64046;51.978;5.934;2023-08-06T05:13:34;8.40;;;6.03;;
75358;SDS011;64046;51.978;5.934;2023-08-06T05:16:07;9.00;;;6.78;;
75358;SDS011;64046;51.978;5.934;2023-08-06T05:18:38;10.77;;;7.20;;
75358;SDS011;64046;51.978;5.934;2023-08-06T05:21:08;8.70;;;6.65;;
75358;SDS011;64046;51.978;5.934;2023-08-06T05:23:41;7.30;;;6.30;;
75358;SDS011;64046;51.978;5.934;2023-08-06T05:26:11;11.43;;;6.32;;
75358;SDS011;64046;51.978;5.934;2023-08-06T05:28:49;9.43;;;6.70;;
75358;SDS011;64046;51.978;5.934;2023-08-06T05:31:20;14.23;;;8.45;;
75358;SDS011;64046;51.978;5.934;2023-08-06T05:33:51;9.40;;;6.72;;
75358;SDS011;64046;51.978;5.934;2023-08-06T05:36:22;11.85;;;7.72;;
75358;SDS011;64046;51.978;5.934;2023-08-06T05:38:56;8.77;;;7.60;;
75358;SDS011;64046;51.978;5.934;2023-08-06T05:41:34;9.77;;;7.03;;
75358;SDS011;64046;51.978;5.934;2023-08-06T05:44:11;12.20;;;9.00;;
75358;SDS011;64046;51.978;5.934;2023-08-06T05:46:45;11.05;;;8.02;;
75358;SDS011;64046;51.978;5.934;2023-08-06T05:49:23;11.73;;;9.43;;
75358;SDS011;64046;51.978;5.934;2023-08-06T05:51:54;11.90;;;9.50;;
75358;SDS011;64046;51.978;5.934;2023-08-06T05:54:39;16.58;;;11.98;;
75358;SDS011;64046;51.978;5.934;2023-08-06T05:57:12;12.75;;;9.75;;
75358;SDS011;64046;51.978;5.934;2023-08-06T05:59:49;14.25;;;10.15;;
75358;SDS011;64046;51.978;5.934;2023-08-06T06:02:27;15.00;;;11.20;;
75358;SDS011;64046;51.978;5.934;2023-08-06T06:05:00;16.55;;;12.63;;
75358;SDS011;64046;51.978;5.934;2023-08-06T06:07:33;13.70;;;11.18;;
75358;SDS011;64046;51.978;5.934;2023-08-06T06:10:05;15.82;;;11.10;;
75358;SDS011;64046;51.978;5.934;2023-08-06T06:12:40;12.88;;;10.18;;
75358;SDS011;64046;51.978;5.934;2023-08-06T06:15:16;13.98;;;10.10;;
75358;SDS011;64046;51.978;5.934;2023-08-06T06:17:50;12.25;;;9.75;;
75358;SDS011;64046;51.978;5.934;2023-08-06T06:20:20;14.55;;;9.48;;
75358;SDS011;64046;51.978;5.934;2023-08-06T06:22:49;12.63;;;9.32;;
75358;SDS011;64046;51.978;5.934;2023-08-06T06:25:20;12.05;;;10.38;;
75358;SDS011;64046;51.978;5.934;2023-08-06T06:27:52;11.90;;;9.25;;
75358;SDS011;64046;51.978;5.934;2023-08-06T06:30:25;10.45;;;8.40;;
75358;SDS011;64046;51.978;5.934;2023-08-06T06:33:02;13.02;;;9.80;;
75358;SDS011;64046;51.978;5.934;2023-08-06T06:35:35;11.05;;;8.43;;
75358;SDS011;64046;51.978;5.934;2023-08-06T06:38:07;12.48;;;9.65;;
75358;SDS011;64046;51.978;5.934;2023-08-06T06:40:37;15.38;;;11.23;;
75358;SDS011;64046;51.978;5.934;2023-08-06T06:43:08;15.40;;;10.95;;
75358;SDS011;64046;51.978;5.934;2023-08-06T06:45:40;13.40;;;9.57;;
75358;SDS011;64046;51.978;5.934;2023-08-06T06:48:12;11.82;;;9.25;;
75358;SDS011;64046;51.978;5.934;2023-08-06T06:50:42;15.95;;;8.88;;
75358;SDS011;64046;51.978;5.934;2023-08-06T06:53:15;15.43;;;10.45;;
75358;SDS011;64046;51.978;5.934;2023-08-06T06:55:47;11.75;;;8.60;;
75358;SDS011;64046;51.978;5.934;2023-08-06T06:58:17;10.40;;;8.82;;
75358;SDS011;64046;51.978;5.934;2023-08-06T07:00:55;11.48;;;9.20;;
75358;SDS011;64046;51.978;5.934;2023-08-06T07:03:26;12.05;;;8.60;;
75358;SDS011;64046;51.978;5.934;2023-08-06T07:05:57;13.98;;;8.65;;
75358;SDS011;64046;51.978;5.934;2023-08-06T07:08:33;12.70;;;9.40;;
75358;SDS011;64046;51.978;5.934;2023-08-06T07:11:08;13.95;;;9.07;;
75358;SDS011;64046;51.978;5.934;2023-08-06T07:13:39;16.40;;;9.27;;
75358;SDS011;64046;51.978;5.934;2023-08-06T07:16:28;11.43;;;8.10;;
75358;SDS011;64046;51.978;5.934;2023-08-06T07:18:59;13.25;;;7.80;;
75358;SDS011;64046;51.978;5.934;2023-08-06T07:21:32;13.32;;;9.07;;
75358;SDS011;64046;51.978;5.934;2023-08-06T07:24:03;12.02;;;8.73;;
75358;SDS011;64046;51.978;5.934;2023-08-06T07:26:38;13.93;;;10.20;;
75358;SDS011;64046;51.978;5.934;2023-08-06T07:29:14;8.98;;;6.93;;
75358;SDS011;64046;51.978;5.934;2023-08-06T07:31:50;12.57;;;9.07;;
75358;SDS011;64046;51.978;5.934;2023-08-06T07:34:21;12.70;;;9.60;;
75358;SDS011;64046;51.978;5.934;2023-08-06T07:36:53;17.35;;;10.88;;
75358;SDS011;64046;51.978;5.934;2023-08-06T07:39:23;10.60;;;8.32;;
75358;SDS011;64046;51.978;5.934;2023-08-06T07:42:01;9.40;;;7.72;;
75358;SDS011;64046;51.978;5.934;2023-08-06T07:44:33;11.13;;;8.23;;
75358;SDS011;64046;51.978;5.934;2023-08-06T07:47:10;10.57;;;7.72;;
75358;SDS011;64046;51.978;5.934;2023-08-06T07:49:42;8.38;;;7.35;;
75358;SDS011;64046;51.978;5.934;2023-08-06T07:52:17;8.65;;;7.18;;
75358;SDS011;64046;51.978;5.934;2023-08-06T07:54:52;7.82;;;7.00;;
75358;SDS011;64046;51.978;5.934;2023-08-06T07:57:22;13.48;;;9.18;;
75358;SDS011;64046;51.978;5.934;2023-08-06T08:00:03;10.40;;;7.85;;
75358;SDS011;64046;51.978;5.934;2023-08-06T08:02:46;10.30;;;7.65;;
75358;SDS011;64046;51.978;5.934;2023-08-06T08:05:15;11.93;;;8.00;;
75358;SDS011;64046;51.978;5.934;2023-08-06T08:07:54;9.93;;;8.07;;
75358;SDS011;64046;51.978;5.934;2023-08-06T08:10:27;9.38;;;8.38;;
75358;SDS011;64046;51.978;5.934;2023-08-06T08:12:57;10.63;;;7.38;;
75358;SDS011;64046;51.978;5.934;2023-08-06T08:15:33;13.13;;;8.32;;
75358;SDS011;64046;51.978;5.934;2023-08-06T08:18:09;10.57;;;8.70;;
75358;SDS011;64046;51.978;5.934;2023-08-06T08:20:39;11.38;;;7.75;;
75358;SDS011;64046;51.978;5.934;2023-08-06T08:23:08;11.95;;;8.10;;
75358;SDS011;64046;51.978;5.934;2023-08-06T08:25:39;9.45;;;7.93;;
75358;SDS011;64046;51.978;5.934;2023-08-06T08:28:14;11.05;;;7.72;;
75358;SDS011;64046;51.978;5.934;2023-08-06T08:30:45;11.68;;;8.10;;
75358;SDS011;64046;51.978;5.934;2023-08-06T08:33:24;11.63;;;9.68;;
75358;SDS011;64046;51.978;5.934;2023-08-06T08:36:08;10.18;;;8.35;;
75358;SDS011;64046;51.978;5.934;2023-08-06T08:38:42;14.75;;;10.07;;
75358;SDS011;64046;51.978;5.934;2023-08-06T08:41:16;10.05;;;7.57;;
75358;SDS011;64046;51.978;5.934;2023-08-06T08:43:50;14.57;;;9.43;;
75358;SDS011;64046;51.978;5.934;2023-08-06T08:46:22;18.77;;;10.77;;
75358;SDS011;64046;51.978;5.934;2023-08-06T08:49:01;12.65;;;10.13;;
75358;SDS011;64046;51.978;5.934;2023-08-06T08:51:34;9.55;;;7.55;;
75358;SDS011;64046;51.978;5.934;2023-08-06T08:54:05;10.25;;;8.25;;
75358;SDS011;64046;51.978;5.934;2023-08-06T08:56:39;9.82;;;7.43;;
75358;SDS011;64046;51.978;5.934;2023-08-06T08:59:13;8.20;;;6.63;;
75358;SDS011;64046;51.978;5.934;2023-08-06T09:01:43;8.23;;;6.82;;
75358;SDS011;64046;51.978;5.934;2023-08-06T09:04:20;15.32;;;10.02;;
75358;SDS011;64046;51.978;5.934;2023-08-06T09:06:53;7.60;;;6.50;;
75358;SDS011;64046;51.978;5.934;2023-08-06T09:09:26;9.45;;;7.20;;
75358;SDS011;64046;51.978;5.934;2023-08-06T09:12:05;12.15;;;7.85;;
75358;SDS011;64046;51.978;5.934;2023-08-06T09:14:41;14.52;;;7.78;;
75358;SDS011;64046;51.978;5.934;2023-08-06T09:17:11;11.95;;;7.60;;
75358;SDS011;64046;51.978;5.934;2023-08-06T09:19:49;9.18;;;6.90;;
75358;SDS011;64046;51.978;5.934;2023-08-06T09:22:20;8.05;;;6.20;;
75358;SDS011;64046;51.978;5.934;2023-08-06T09:24:55;9.80;;;7.03;;
75358;SDS011;64046;51.978;5.934;2023-08-06T09:27:27;9.30;;;6.28;;
75358;SDS011;64046;51.978;5.934;2023-08-06T09:30:06;6.57;;;5.20;;
75358;SDS011;64046;51.978;5.934;2023-08-06T09:32:44;6.50;;;5.72;;
75358;SDS011;64046;51.978;5.934;2023-08-06T09:35:22;9.05;;;6.85;;
75358;SDS011;64046;51.978;5.934;2023-08-06T09:37:54;6.68;;;5.80;;
75358;SDS011;64046;51.978;5.934;2023-08-06T09:40:25;8.38;;;6.10;;
75358;SDS011;64046;51.978;5.934;2023-08-06T09:42:59;8.77;;;6.72;;
75358;SDS011;64046;51.978;5.934;2023-08-06T09:45:29;7.40;;;5.82;;
75358;SDS011;64046;51.978;5.934;2023-08-06T09:48:03;10.93;;;6.55;;
75358;SDS011;64046;51.978;5.934;2023-08-06T09:50:40;9.63;;;6.82;;
75358;SDS011;64046;51.978;5.934;2023-08-06T09:53:14;8.35;;;5.72;;
75358;SDS011;64046;51.978;5.934;2023-08-06T09:55:48;8.30;;;5.82;;
75358;SDS011;64046;51.978;5.934;2023-08-06T09:58:20;10.23;;;6.88;;
75358;SDS011;64046;51.978;5.934;2023-08-06T10:00:55;11.00;;;6.78;;
75358;SDS011;64046;51.978;5.934;2023-08-06T10:03:28;8.18;;;5.85;;
75358;SDS011;64046;51.978;5.934;2023-08-06T10:06:02;9.10;;;7.70;;
75358;SDS011;64046;51.978;5.934;2023-08-06T10:08:41;10.60;;;7.60;;
75358;SDS011;64046;51.978;5.934;2023-08-06T10:11:14;8.38;;;6.80;;
75358;SDS011;64046;51.978;5.934;2023-08-06T10:13:52;7.85;;;6.38;;
75358;SDS011;64046;51.978;5.934;2023-08-06T10:16:32;9.75;;;6.28;;
75358;SDS011;64046;51.978;5.934;2023-08-06T10:19:07;7.90;;;6.55;;
75358;SDS011;64046;51.978;5.934;2023-08-06T10:21:44;10.10;;;7.40;;
75358;SDS011;64046;51.978;5.934;2023-08-06T10:24:47;14.10;;;9.00;;
75358;SDS011;64046;51.978;5.934;2023-08-06T10:27:28;15.50;;;11.02;;
75358;SDS011;64046;51.978;5.934;2023-08-06T10:32:56;17.52;;;12.68;;
75358;SDS011;64046;51.978;5.934;2023-08-06T10:35:33;14.52;;;11.10;;
75358;SDS011;64046;51.978;5.934;2023-08-06T10:38:13;10.98;;;8.57;;
75358;SDS011;64046;51.978;5.934;2023-08-06T10:40:52;4.47;;;3.20;;
75358;SDS011;64046;51.978;5.934;2023-08-06T10:43:31;3.72;;;2.45;;
75358;SDS011;64046;51.978;5.934;2023-08-06T10:46:21;2.80;;;1.65;;
75358;SDS011;64046;51.978;5.934;2023-08-06T10:48:54;1.92;;;1.40;;
75358;SDS011;64046;51.978;5.934;2023-08-06T10:51:27;2.35;;;1.30;;
75358;SDS011;64046;51.978;5.934;2023-08-06T10:54:03;2.25;;;1.15;;
75358;SDS011;64046;51.978;5.934;2023-08-06T10:56:39;2.60;;;1.23;;
75358;SDS011;64046;51.978;5.934;2023-08-06T10:59:10;1.27;;;1.08;;
75358;SDS011;64046;51.978;5.934;2023-08-06T11:01:45;2.92;;;1.33;;
75358;SDS011;64046;51.978;5.934;2023-08-06T11:04:20;2.05;;;1.30;;
75358;SDS011;64046;51.978;5.934;2023-08-06T11:06:54;2.25;;;1.30;;
75358;SDS011;64046;51.978;5.934;2023-08-06T11:09:28;2.20;;;1.30;;
75358;SDS011;64046;51.978;5.934;2023-08-06T11:12:04;1.90;;;1.50;;
75358;SDS011;64046;51.978;5.934;2023-08-06T11:14:50;3.95;;;1.20;;
75358;SDS011;64046;51.978;5.934;2023-08-06T11:17:21;3.75;;;1.80;;
75358;SDS011;64046;51.978;5.934;2023-08-06T11:19:55;1.83;;;1.17;;
75358;SDS011;64046;51.978;5.934;2023-08-06T11:22:28;2.63;;;1.30;;
75358;SDS011;64046;51.978;5.934;2023-08-06T11:25:03;2.20;;;1.33;;
75358;SDS011;64046;51.978;5.934;2023-08-06T11:27:41;1.73;;;1.30;;
75358;SDS011;64046;51.978;5.934;2023-08-06T11:30:19;2.50;;;1.55;;
75358;SDS011;64046;51.978;5.934;2023-08-06T11:32:52;1.73;;;1.27;;
75358;SDS011;64046;51.978;5.934;2023-08-06T11:35:22;2.15;;;1.70;;
75358;SDS011;64046;51.978;5.934;2023-08-06T11:37:54;5.25;;;2.03;;
75358;SDS011;64046;51.978;5.934;2023-08-06T11:40:27;3.13;;;2.03;;
75358;SDS011;64046;51.978;5.934;2023-08-06T11:42:57;3.28;;;2.28;;
75358;SDS011;64046;51.978;5.934;2023-08-06T11:45:30;6.30;;;2.03;;
75358;SDS011;64046;51.978;5.934;2023-08-06T11:48:05;5.07;;;2.25;;
75358;SDS011;64046;51.978;5.934;2023-08-06T11:50:36;3.40;;;2.15;;
75358;SDS011;64046;51.978;5.934;2023-08-06T11:53:22;3.35;;;2.13;;
75358;SDS011;64046;51.978;5.934;2023-08-06T11:56:09;5.78;;;2.38;;
75358;SDS011;64046;51.978;5.934;2023-08-06T11:58:43;3.35;;;2.00;;
75358;SDS011;64046;51.978;5.934;2023-08-06T12:01:15;2.88;;;1.80;;
75358;SDS011;64046;51.978;5.934;2023-08-06T12:03:50;3.90;;;2.03;;
75358;SDS011;64046;51.978;5.934;2023-08-06T12:06:26;3.15;;;1.83;;
75358;SDS011;64046;51.978;5.934;2023-08-06T12:09:14;3.47;;;1.90;;
75358;SDS011;64046;51.978;5.934;2023-08-06T12:11:48;3.47;;;1.92;;
75358;SDS011;64046;51.978;5.934;2023-08-06T12:14:20;5.25;;;1.90;;
75358;SDS011;64046;51.978;5.934;2023-08-06T12:16:52;2.60;;;1.95;;
75358;SDS011;64046;51.978;5.934;2023-08-06T12:19:22;3.63;;;2.60;;
75358;SDS011;64046;51.978;5.934;2023-08-06T12:22:00;6.00;;;2.50;;
75358;SDS011;64046;51.978;5.934;2023-08-06T12:24:35;6.63;;;2.90;;
75358;SDS011;64046;51.978;5.934;2023-08-06T12:27:12;5.32;;;2.88;;
75358;SDS011;64046;51.978;5.934;2023-08-06T12:29:42;5.43;;;2.55;;
75358;SDS011;64046;51.978;5.934;2023-08-06T12:32:15;6.22;;;3.13;;
75358;SDS011;64046;51.978;5.934;2023-08-06T12:34:45;5.75;;;3.33;;
75358;SDS011;64046;51.978;5.934;2023-08-06T12:37:14;7.38;;;3.25;;
75358;SDS011;64046;51.978;5.934;2023-08-06T12:39:44;5.65;;;2.85;;
75358;SDS011;64046;51.978;5.934;2023-08-06T12:42:19;4.30;;;2.65;;
75358;SDS011;64046;51.978;5.934;2023-08-06T12:44:53;3.40;;;2.35;;
75358;SDS011;64046;51.978;5.934;2023-08-06T12:47:34;6.35;;;3.63;;
75358;SDS011;64046;51.978;5.934;2023-08-06T12:50:06;7.43;;;3.10;;
75358;SDS011;64046;51.978;5.934;2023-08-06T12:52:37;5.35;;;3.10;;
75358;SDS011;64046;51.978;5.934;2023-08-06T12:55:12;6.70;;;3.38;;
75358;SDS011;64046;51.978;5.934;2023-08-06T12:57:56;4.65;;;3.20;;
75358;SDS011;64046;51.978;5.934;2023-08-06T13:00:27;5.43;;;3.17;;
75358;SDS011;64046;51.978;5.934;2023-08-06T13:03:00;7.05;;;3.80;;
75358;SDS011;64046;51.978;5.934;2023-08-06T13:05:29;6.90;;;3.85;;
75358;SDS011;64046;51.978;5.934;2023-08-06T13:08:09;4.78;;;2.70;;
75358;SDS011;64046;51.978;5.934;2023-08-06T13:10:43;6.88;;;3.08;;
75358;SDS011;64046;51.978;5.934;2023-08-06T13:13:16;7.15;;;3.05;;
75358;SDS011;64046;51.978;5.934;2023-08-06T13:15:55;5.55;;;3.20;;
75358;SDS011;64046;51.978;5.934;2023-08-06T13:18:34;5.32;;;2.95;;
75358;SDS011;64046;51.978;5.934;2023-08-06T13:21:10;6.32;;;3.05;;
75358;SDS011;64046;51.978;5.934;2023-08-06T13:23:40;7.03;;;2.95;;
75358;SDS011;64046;51.978;5.934;2023-08-06T13:26:12;5.38;;;2.90;;
75358;SDS011;64046;51.978;5.934;2023-08-06T13:28:44;3.78;;;2.53;;
75358;SDS011;64046;51.978;5.934;2023-08-06T13:31:26;5.43;;;2.67;;
75358;SDS011;64046;51.978;5.934;2023-08-06T13:33:58;5.38;;;3.40;;
75358;SDS011;64046;51.978;5.934;2023-08-06T13:36:31;6.63;;;3.38;;
75358;SDS011;64046;51.978;5.934;2023-08-06T13:39:05;4.53;;;2.95;;
75358;SDS011;64046;51.978;5.934;2023-08-06T13:41:35;7.40;;;3.08;;
75358;SDS011;64046;51.978;5.934;2023-08-06T13:44:15;6.78;;;2.95;;
75358;SDS011;64046;51.978;5.934;2023-08-06T13:46:47;7.22;;;3.47;;
75358;SDS011;64046;51.978;5.934;2023-08-06T13:49:17;4.53;;;2.70;;
75358;SDS011;64046;51.978;5.934;2023-08-06T13:51:48;4.47;;;3.03;;
75358;SDS011;64046;51.978;5.934;2023-08-06T13:54:21;5.43;;;3.15;;
75358;SDS011;64046;51.978;5.934;2023-08-06T13:56:51;6.88;;;3.08;;
75358;SDS011;64046;51.978;5.934;2023-08-06T13:59:27;5.13;;;2.55;;
75358;SDS011;64046;51.978;5.934;2023-08-06T14:01:59;4.65;;;2.75;;
75358;SDS011;64046;51.978;5.934;2023-08-06T14:04:31;5.10;;;2.78;;
75358;SDS011;64046;51.978;5.934;2023-08-06T14:07:05;6.35;;;2.88;;
75358;SDS011;64046;51.978;5.934;2023-08-06T14:09:38;3.60;;;2.45;;
75358;SDS011;64046;51.978;5.934;2023-08-06T14:12:10;4.43;;;2.60;;
75358;SDS011;64046;51.978;5.934;2023-08-06T14:14:43;4.45;;;2.70;;
75358;SDS011;64046;51.978;5.934;2023-08-06T14:17:20;6.00;;;3.00;;
75358;SDS011;64046;51.978;5.934;2023-08-06T14:19:52;5.65;;;2.78;;
75358;SDS011;64046;51.978;5.934;2023-08-06T14:22:24;3.70;;;2.50;;
75358;SDS011;64046;51.978;5.934;2023-08-06T14:24:54;5.13;;;2.80;;
75358;SDS011;64046;51.978;5.934;2023-08-06T14:30:45;3.92;;;2.58;;
75358;SDS011;64046;51.978;5.934;2023-08-06T14:33:17;5.20;;;2.75;;
75358;SDS011;64046;51.978;5.934;2023-08-06T14:35:57;6.60;;;3.47;;
75358;SDS011;64046;51.978;5.934;2023-08-06T14:38:28;5.72;;;3.38;;
75358;SDS011;64046;51.978;5.934;2023-08-06T14:40:59;6.53;;;3.65;;
75358;SDS011;64046;51.978;5.934;2023-08-06T14:43:31;6.05;;;3.30;;
75358;SDS011;64046;51.978;5.934;2023-08-06T14:46:06;6.20;;;3.90;;
75358;SDS011;64046;51.978;5.934;2023-08-06T14:48:37;5.75;;;3.40;;
75358;SDS011;64046;51.978;5.934;2023-08-06T14:51:12;4.75;;;3.33;;
75358;SDS011;64046;51.978;5.934;2023-08-06T14:53:42;6.43;;;3.47;;
75358;SDS011;64046;51.978;5.934;2023-08-06T14:56:11;6.65;;;3.42;;
75358;SDS011;64046;51.978;5.934;2023-08-06T14:58:49;4.72;;;3.70;;
75358;SDS011;64046;51.978;5.934;2023-08-06T15:01:21;8.73;;;3.45;;
75358;SDS011;64046;51.978;5.934;2023-08-06T15:03:54;4.45;;;3.22;;
75358;SDS011;64046;51.978;5.934;2023-08-06T15:06:33;8.23;;;4.15;;
75358;SDS011;64046;51.978;5.934;2023-08-06T15:09:04;8.30;;;4.22;;
75358;SDS011;64046;51.978;5.934;2023-08-06T15:11:35;6.20;;;3.75;;
75358;SDS011;64046;51.978;5.934;2023-08-06T15:14:09;6.82;;;3.72;;
75358;SDS011;64046;51.978;5.934;2023-08-06T15:16:46;9.93;;;3.75;;
75358;SDS011;64046;51.978;5.934;2023-08-06T15:19:20;6.53;;;3.63;;
75358;SDS011;64046;51.978;5.934;2023-08-06T15:21:56;7.47;;;3.40;;
75358;SDS011;64046;51.978;5.934;2023-08-06T15:24:26;7.28;;;3.47;;
75358;SDS011;64046;51.978;5.934;2023-08-06T15:26:59;6.85;;;4.47;;
75358;SDS011;64046;51.978;5.934;2023-08-06T15:29:31;7.22;;;3.85;;
75358;SDS011;64046;51.978;5.934;2023-08-06T15:32:05;6.80;;;3.35;;